createdAt,value
2018-04-24T00:01:10.899Z,1.1
2018-04-24T00:11:23.864Z,1.3
2018-04-24T00:22:13.363Z,2.8
2018-04-24T00:32:29.154Z,1.5
2018-04-24T00:43:14.168Z,3.3
2018-04-24T00:54:03.553Z,2.2
2018-04-24T01:04:18.886Z,1.9
2018-04-24T01:14:34.564Z,4.2
2018-04-24T01:25:22.964Z,3.6
2018-04-24T01:35:36.150Z,5.4
2018-04-24T01:50:10.692Z,4.9
2018-04-24T02:00:59.911Z,3.4
2018-04-24T02:13:50.525Z,3.2
2018-04-24T02:24:36.076Z,4.5
2018-04-24T02:34:50.835Z,3.9
2018-04-24T02:45:06.669Z,2.3
2018-04-24T02:55:20.804Z,3.7
2018-04-24T03:05:35.337Z,3.0
2018-04-24T03:16:24.320Z,3.5
2018-04-24T03:26:42.981Z,2.5
2018-04-24T03:37:37.230Z,2.0
2018-04-24T03:48:00.618Z,1.3
2018-04-24T03:58:16.247Z,1.7
2018-04-24T04:10:16.928Z,1.9
2018-04-24T04:32:00.222Z,0.8
2018-04-24T04:42:14.729Z,0.7
2018-04-24T04:52:30.498Z,1.8
2018-04-24T05:03:28.952Z,3.3
2018-04-24T05:14:23.844Z,1.9
2018-04-24T05:24:39.614Z,1.4
2018-04-24T05:34:55.541Z,2.9
2018-04-24T05:45:11.293Z,2.1
2018-04-24T06:09:32.750Z,2.3
2018-04-24T06:19:47.749Z,2.8
2018-04-24T06:42:09.859Z,1.9
2018-04-24T07:16:21.623Z,2.9
2018-04-24T07:26:36.929Z,3.5
2018-04-24T07:37:23.893Z,2.0
2018-04-24T07:47:37.081Z,3.3
2018-04-24T07:57:52.184Z,2.8
2018-04-24T08:08:56.741Z,3.5
2018-04-24T08:19:08.470Z,2.9
2018-04-24T08:29:31.431Z,4.9
2018-04-24T08:50:18.105Z,4.1
2018-04-24T09:00:32.560Z,3.6
2018-04-24T09:10:48.931Z,4.0
2018-04-24T09:21:03.398Z,5.6
2018-04-24T09:31:26.235Z,4.5
2018-04-24T09:41:40.411Z,4.1
2018-04-24T09:51:54.970Z,5.0
2018-04-24T10:02:25.287Z,4.9
2018-04-24T10:22:56.776Z,3.3
2018-04-24T10:33:28.583Z,5.0
2018-04-24T10:43:53.648Z,4.6
2018-04-24T10:54:06.139Z,3.4
2018-04-24T11:04:24.676Z,4.9
2018-04-24T11:14:52.091Z,6.4
2018-04-24T11:25:07.363Z,4.8
2018-04-24T11:35:22.045Z,6.1
2018-04-24T11:45:36.140Z,5.3
2018-04-24T11:56:35.456Z,6.4
2018-04-24T12:17:37.626Z,9.5
2018-04-24T12:28:04.202Z,11.7
2018-04-24T12:38:28.353Z,7.4
2018-04-24T12:48:40.161Z,6.0
2018-04-24T12:59:02.816Z,7.8
2018-04-24T13:09:36.591Z,9.5
2018-04-24T13:19:50.819Z,8.2
2018-04-24T13:30:05.436Z,8.8
2018-04-24T13:40:19.252Z,7.8
2018-04-24T13:51:05.152Z,12.5
2018-04-24T14:01:51.063Z,10.2
2018-04-24T14:22:54.658Z,7.5
2018-04-24T14:33:45.272Z,11.4
2018-04-24T14:43:59.807Z,8.7
2018-04-24T14:55:11.293Z,9.3
2018-04-24T15:05:25.414Z,5.1
2018-04-24T15:16:00.522Z,7.1
2018-04-24T15:26:27.799Z,9.0
2018-04-24T15:36:53.698Z,8.2
2018-04-24T15:47:23.021Z,7.5
2018-04-24T15:59:20.038Z,9.8
2018-04-24T16:10:47.618Z,8.2
2018-04-24T16:21:15.999Z,7.6
2018-04-24T16:32:24.511Z,6.7
2018-04-24T16:43:26.252Z,7.9
2018-04-24T16:54:14.322Z,8.2
2018-04-24T17:05:16.052Z,9.3
2018-04-24T17:15:33.457Z,9.6
2018-04-24T17:43:22.945Z,9.3
2018-04-24T18:14:46.610Z,8.1
2018-04-24T18:38:29.546Z,6.8
2018-04-24T19:03:08.756Z,7.9
2018-04-24T19:14:38.636Z,6.3
2018-04-24T19:44:05.581Z,7.2
2018-04-24T19:55:17.300Z,7.8
2018-04-24T20:06:06.740Z,6.5
2018-04-24T20:16:53.395Z,5.2
2018-04-24T20:28:03.227Z,7.7
2018-04-24T20:38:34.555Z,6.1
2018-04-24T20:49:50.193Z,6.2
2018-04-24T21:01:05.710Z,5.3
2018-04-24T21:12:41.747Z,5.9
2018-04-24T21:23:32.265Z,7.7
2018-04-24T21:35:15.611Z,8.1
2018-04-24T21:46:37.507Z,9.2
2018-04-24T21:57:24.674Z,6.0
2018-04-24T22:07:58.642Z,7.6
2018-04-24T22:18:41.577Z,4.5
2018-04-24T22:29:13.032Z,7.6
2018-04-24T22:50:32.469Z,3.4
2018-04-24T23:01:26.354Z,6.7
2018-04-24T23:12:02.353Z,6.1
2018-04-24T23:33:35.807Z,5.7
2018-04-24T23:44:24.646Z,7.6
